Time;durP1;ratioP1;P1;durP2;ratioP2;P2;SDS_P1;SDS_P2;PMS_P1;PMS_P2;Temp;Humidity;BMP_temperature;BMP_pressure;BME280_temperature;BME280_humidity;BME280_pressure;Samples;Min_cycle;Max_cycle;Signal;HPM_P1;HPM_P2
2022/08/13 00:09:18;;;;;;;;;;;;;;;24.18;39.21;100162.84;20483531;28;98124;-74
2022/08/13 00:19:23;;;;;;;;;;;;;;;24.08;39.62;100150.50;20471288;28;100140;-75
2022/08/13 00:29:30;;;;;;;;;;;;;;;24.02;39.95;100148.41;20477462;28;100332;-74
2022/08/13 00:39:30;;;;;;;;;;;;;;;23.90;40.48;100150.38;20469728;28;98289;-73
2022/08/13 00:49:30;;;;;;;;;;;;;;;23.83;40.71;100134.22;20473685;28;97161;-73
2022/08/13 00:59:31;;;;;;;;;;;;;;;23.79;40.73;100127.56;20466101;28;98350;-74
2022/08/13 01:09:31;;;;;;;;;;;;;;;23.73;41.11;100122.00;20462522;28;100884;-73
2022/08/13 01:19:33;;;;;;;;;;;;;;;23.67;41.52;100110.22;20473057;28;100181;-73
2022/08/13 01:29:35;;;;;;;;;;;;;;;23.70;41.66;100111.72;20470695;28;101355;-74
2022/08/13 01:39:35;;;;;;;;;;;;;;;23.69;41.92;100099.47;20476398;28;97318;-74
2022/08/13 02:00:05;;;;;;;;;;;;;;;23.65;42.47;100096.28;20473597;28;97962;-75
2022/08/13 02:10:06;;;;;;;;;;;;;;;23.73;42.37;100098.22;20472228;28;98653;-74
2022/08/13 02:20:07;;;;;;;;;;;;;;;23.70;42.62;100096.69;20471239;28;97663;-74
2022/08/13 02:30:09;;;;;;;;;;;;;;;23.58;42.91;100098.69;20473055;28;100621;-74
2022/08/13 02:50:30;;;;;;;;;;;;;;;23.40;43.38;100097.72;20466808;28;98828;-73
2022/08/13 03:00:30;;;;;;;;;;;;;;;23.34;43.61;100092.00;20485191;28;100699;-73
2022/08/13 03:10:31;;;;;;;;;;;;;;;23.22;44.16;100087.84;20478697;28;99019;-73
2022/08/13 03:20:32;;;;;;;;;;;;;;;23.24;44.05;100087.72;20473106;28;101062;-74
2022/08/13 03:30:34;;;;;;;;;;;;;;;23.17;44.40;100080.34;20470495;28;100490;-73
2022/08/13 03:50:55;;;;;;;;;;;;;;;23.00;44.97;100057.25;20461615;28;99128;-73
2022/08/13 04:00:56;;;;;;;;;;;;;;;22.99;45.31;100045.84;20467235;28;97812;-73
2022/08/13 04:10:57;;;;;;;;;;;;;;;23.03;45.10;100051.69;20465625;28;97551;-73
2022/08/13 04:20:57;;;;;;;;;;;;;;;23.05;45.30;100049.75;20463615;28;98716;-74
2022/08/13 04:30:58;;;;;;;;;;;;;;;23.07;45.56;100055.72;20452391;28;98534;-74
2022/08/13 04:40:59;;;;;;;;;;;;;;;23.03;45.70;100043.75;20455857;28;98717;-74
2022/08/13 04:51:00;;;;;;;;;;;;;;;23.08;45.62;100049.44;20461489;28;99115;-73
2022/08/13 05:01:09;;;;;;;;;;;;;;;23.27;45.20;100050.47;20488955;27;101167;-74
2022/08/13 05:11:12;;;;;;;;;;;;;;;23.28;45.38;100058.22;20479086;28;97946;-75
2022/08/13 05:21:14;;;;;;;;;;;;;;;23.32;45.15;100037.66;20509507;28;98493;-74
2022/08/13 05:31:17;;;;;;;;;;;;;;;23.44;45.12;100043.63;20502262;28;98747;-75
2022/08/13 05:41:18;;;;;;;;;;;;;;;23.40;45.29;100064.22;20493525;28;98323;-74
2022/08/13 05:51:18;;;;;;;;;;;;;;;23.45;45.45;100051.41;20495793;28;98896;-75
2022/08/13 06:11:40;;;;;;;;;;;;;;;23.60;45.30;100043.84;20478952;28;101108;-75
2022/08/13 06:21:41;;;;;;;;;;;;;;;23.69;44.95;100036.03;20489378;27;103163;-74
2022/08/13 06:31:42;;;;;;;;;;;;;;;23.75;45.13;100038.09;20477416;28;97481;-74
2022/08/13 06:41:44;;;;;;;;;;;;;;;23.81;45.30;100035.72;20486653;28;98119;-74
2022/08/13 06:51:45;;;;;;;;;;;;;;;23.87;45.02;100031.66;20492244;28;97329;-76
2022/08/13 07:01:46;;;;;;;;;;;;;;;23.97;45.33;100035.13;20504986;28;97988;-75
2022/08/13 07:11:47;;;;;;;;;;;;;;;24.01;45.01;100038.31;20519429;28;97234;-76
2022/08/13 07:21:47;;;;;;;;;;;;;;;24.04;44.86;100047.78;20489172;28;100730;-76
2022/08/13 07:31:47;;;;;;;;;;;;;;;24.11;44.68;100049.69;20497830;28;98203;-76
2022/08/13 07:41:48;;;;;;;;;;;;;;;24.16;44.65;100032.53;20502426;28;97682;-75
2022/08/13 07:51:51;;;;;;;;;;;;;;;24.21;44.58;100032.94;20502273;28;98499;-76
2022/08/13 08:01:55;;;;;;;;;;;;;;;24.27;44.91;100022.59;20492485;28;107257;-77
2022/08/13 08:22:18;;;;;;;;;;;;;;;24.43;44.38;100019.28;20491294;28;98201;-77
2022/08/13 08:32:19;;;;;;;;;;;;;;;24.51;44.27;100013.25;20489932;28;98564;-76
2022/08/13 08:42:38;;;;;;;;;;;;;;;24.58;44.06;100011.69;20481952;28;99343;-75
2022/08/13 09:02:58;;;;;;;;;;;;;;;24.76;43.72;100000.28;20481793;28;97349;-75
2022/08/13 09:13:02;;;;;;;;;;;;;;;24.86;43.49;99982.47;20507293;28;97740;-75
2022/08/13 09:23:07;;;;;;;;;;;;;;;24.99;43.51;99975.97;20513989;28;98569;-76
2022/08/13 09:33:09;;;;;;;;;;;;;;;25.01;42.78;99955.44;20508762;28;99676;-76
2022/08/13 09:43:17;;;;;;;;;;;;;;;25.12;43.18;99965.81;20511554;28;98709;-77
2022/08/13 09:53:18;;;;;;;;;;;;;;;25.23;42.75;99949.66;20526710;28;97429;-75
2022/08/13 10:03:18;;;;;;;;;;;;;;;25.32;42.27;99947.88;20513787;28;98417;-75
2022/08/13 10:13:19;;;;;;;;;;;;;;;25.40;41.53;99947.09;20496871;28;101136;-76
2022/08/13 10:23:19;;;;;;;;;;;;;;;25.52;41.24;99943.22;20502931;28;99009;-75
2022/08/13 10:33:20;;;;;;;;;;;;;;;25.60;43.52;99926.50;20482008;28;98419;-75
2022/08/13 10:43:21;;;;;;;;;;;;;;;25.73;46.09;99926.91;20476905;28;100597;-76
2022/08/13 11:03:44;;;;;;;;;;;;;;;25.83;43.31;99918.81;20475126;28;97881;-76
2022/08/13 11:13:45;;;;;;;;;;;;;;;25.86;42.22;99912.34;20476185;28;99845;-77
2022/08/13 11:23:45;;;;;;;;;;;;;;;25.91;41.14;99898.59;20475447;28;99159;-77
2022/08/13 11:33:45;;;;;;;;;;;;;;;25.94;39.96;99895.59;20485118;28;99202;-75
2022/08/13 11:43:46;;;;;;;;;;;;;;;25.97;40.54;99890.81;20472399;28;98906;-77
2022/08/13 11:53:48;;;;;;;;;;;;;;;26.04;39.07;99885.69;20472431;28;98415;-78
2022/08/13 12:03:48;;;;;;;;;;;;;;;26.04;39.48;99873.25;20486269;28;100521;-77
2022/08/13 12:13:49;;;;;;;;;;;;;;;26.07;40.11;99879.25;20484260;28;100883;-76
2022/08/13 12:23:49;;;;;;;;;;;;;;;26.17;39.08;99861.34;20475776;28;98043;-77
2022/08/13 12:33:50;;;;;;;;;;;;;;;26.18;39.37;99855.91;20485679;28;98075;-78
2022/08/13 12:43:50;;;;;;;;;;;;;;;26.21;39.18;99846.78;20489304;28;97672;-77
2022/08/13 12:53:50;;;;;;;;;;;;;;;26.25;38.66;99840.13;20491532;28;98791;-78
2022/08/13 13:03:50;;;;;;;;;;;;;;;26.35;37.62;99832.84;20484673;28;98021;-78
2022/08/13 13:13:51;;;;;;;;;;;;;;;26.39;37.40;99830.69;20511178;28;98097;-78
2022/08/13 13:23:51;;;;;;;;;;;;;;;26.42;37.06;99822.38;20540341;28;97890;-78
2022/08/13 13:33:51;;;;;;;;;;;;;;;26.42;36.51;99806.44;20521307;28;98040;-77
2022/08/13 13:43:51;;;;;;;;;;;;;;;26.44;35.69;99793.00;20484463;28;100077;-78
2022/08/13 13:53:52;;;;;;;;;;;;;;;26.48;36.19;99783.72;20483096;27;97648;-77
2022/08/13 14:03:52;;;;;;;;;;;;;;;26.54;36.79;99785.69;20464901;28;98394;-75
2022/08/13 14:13:52;;;;;;;;;;;;;;;26.60;36.91;99778.88;20465368;28;97851;-76
2022/08/13 14:23:53;;;;;;;;;;;;;;;26.60;36.97;99774.41;20458239;28;98081;-77
2022/08/13 14:33:54;;;;;;;;;;;;;;;26.64;37.48;99762.44;20451623;28;98660;-79
2022/08/13 14:43:55;;;;;;;;;;;;;;;26.72;37.19;99750.13;20456544;28;100648;-75
2022/08/13 14:53:56;;;;;;;;;;;;;;;26.77;37.24;99740.69;20455875;28;98528;-76
2022/08/13 15:03:59;;;;;;;;;;;;;;;26.85;37.90;99726.53;20443223;28;97917;-76
2022/08/13 15:13:59;;;;;;;;;;;;;;;26.90;37.34;99716.22;20442360;28;98371;-78
2022/08/13 15:24:00;;;;;;;;;;;;;;;26.96;37.81;99712.06;20443312;28;97931;-76
2022/08/13 15:34:01;;;;;;;;;;;;;;;27.05;36.32;99707.53;20462181;28;101077;-77
2022/08/13 15:44:01;;;;;;;;;;;;;;;27.11;35.65;99706.81;20460953;28;97939;-75
2022/08/13 15:54:01;;;;;;;;;;;;;;;27.18;35.86;99702.47;20461764;28;99386;-75
2022/08/13 16:04:02;;;;;;;;;;;;;;;27.24;35.99;99712.38;20458208;28;99057;-76
2022/08/13 16:14:03;;;;;;;;;;;;;;;27.26;36.30;99706.91;20463472;28;102086;-79
2022/08/13 16:24:03;;;;;;;;;;;;;;;27.24;36.30;99700.94;20467068;28;97555;-77
2022/08/13 16:34:04;;;;;;;;;;;;;;;27.20;36.32;99694.34;20470854;28;98569;-77
2022/08/13 16:44:04;;;;;;;;;;;;;;;27.13;36.60;99692.34;20459745;28;101054;-77
2022/08/13 16:54:06;;;;;;;;;;;;;;;27.11;36.27;99694.38;20475511;28;98754;-76
2022/08/13 17:14:28;;;;;;;;;;;;;;;27.02;36.99;99692.75;20470586;28;101347;-75
2022/08/13 17:24:31;;;;;;;;;;;;;;;26.97;36.05;99697.78;20467664;28;98709;-74
2022/08/13 17:34:34;;;;;;;;;;;;;;;26.93;35.89;99705.25;20461881;28;100740;-75
2022/08/13 17:44:39;;;;;;;;;;;;;;;26.88;34.98;99702.31;20458659;28;98413;-74
2022/08/13 17:54:40;;;;;;;;;;;;;;;26.79;34.35;99708.63;20442557;28;101053;-75
2022/08/13 18:04:40;;;;;;;;;;;;;;;26.73;34.49;99706.66;20439974;28;100505;-74
2022/08/13 18:14:40;;;;;;;;;;;;;;;26.65;35.24;99713.63;20452424;28;97797;-74
2022/08/13 18:24:40;;;;;;;;;;;;;;;26.55;35.49;99721.00;20432565;28;98830;-74
2022/08/13 18:34:41;;;;;;;;;;;;;;;26.50;35.51;99734.75;20431785;27;99762;-74
2022/08/13 18:44:42;;;;;;;;;;;;;;;26.42;35.66;99736.63;20457013;27;100799;-74
2022/08/13 18:54:42;;;;;;;;;;;;;;;26.32;36.08;99755.38;20455928;28;97075;-75
2022/08/13 19:04:45;;;;;;;;;;;;;;;26.18;36.82;99756.88;20481718;28;100410;-75
2022/08/13 19:14:46;;;;;;;;;;;;;;;26.08;37.31;99765.00;20471562;28;99678;-74
2022/08/13 19:24:47;;;;;;;;;;;;;;;26.19;36.89;99759.34;20475351;28;97570;-74
2022/08/13 19:34:49;;;;;;;;;;;;;;;26.21;37.10;99762.69;20462581;28;100975;-74
2022/08/13 19:44:49;;;;;;;;;;;;;;;26.20;37.47;99763.66;20492303;28;98695;-74
2022/08/13 19:54:49;;;;;;;;;;;;;;;26.19;37.90;99758.53;20493439;28;97836;-75
2022/08/13 20:04:50;;;;;;;;;;;;;;;26.24;38.11;99760.69;20479763;28;97783;-73
2022/08/13 20:14:50;;;;;;;;;;;;;;;26.14;38.17;99767.00;20485579;28;97021;-74
2022/08/13 20:24:51;;;;;;;;;;;;;;;26.18;38.10;99756.88;20483037;28;98151;-74
2022/08/13 20:34:51;;;;;;;;;;;;;;;26.17;38.19;99758.72;20454532;28;97399;-75
2022/08/13 20:44:51;;;;;;;;;;;;;;;26.10;38.59;99760.38;20464587;28;98339;-73
2022/08/13 20:54:52;;;;;;;;;;;;;;;26.04;38.92;99761.00;20482457;28;98068;-73
2022/08/13 21:04:52;;;;;;;;;;;;;;;25.99;38.96;99760.69;20458113;28;98391;-75
2022/08/13 21:14:53;;;;;;;;;;;;;;;26.01;38.87;99758.69;20455620;28;98970;-74
2022/08/13 21:24:53;;;;;;;;;;;;;;;25.78;39.00;99763.81;20463903;28;98702;-74
2022/08/13 21:34:54;;;;;;;;;;;;;;;25.57;39.67;99762.44;20464913;28;98617;-75
2022/08/13 21:44:54;;;;;;;;;;;;;;;25.41;40.24;99760.59;20467535;28;101120;-75
2022/08/13 21:54:54;;;;;;;;;;;;;;;25.36;40.16;99757.56;20464983;28;100429;-75
2022/08/13 22:04:56;;;;;;;;;;;;;;;25.20;40.97;99750.41;20475230;28;98982;-75
2022/08/13 22:14:56;;;;;;;;;;;;;;;25.11;41.18;99749.56;20472094;28;97936;-74
2022/08/13 22:24:56;;;;;;;;;;;;;;;24.98;41.41;99741.25;20467484;28;98099;-75
2022/08/13 22:34:58;;;;;;;;;;;;;;;24.95;41.56;99734.44;20459458;28;101267;-74
2022/08/13 22:44:58;;;;;;;;;;;;;;;24.79;42.16;99735.19;20455286;28;97818;-74
2022/08/13 22:54:58;;;;;;;;;;;;;;;24.64;42.60;99734.09;20444875;28;98521;-74
2022/08/13 23:04:59;;;;;;;;;;;;;;;24.57;42.82;99729.44;20437936;28;98952;-74
2022/08/13 23:14:59;;;;;;;;;;;;;;;24.48;42.87;99711.84;20442505;28;101182;-74
2022/08/13 23:25:00;;;;;;;;;;;;;;;24.40;43.08;99714.44;20446248;28;99898;-73
2022/08/13 23:35:01;;;;;;;;;;;;;;;24.32;43.19;99723.16;20444681;28;99541;-74
2022/08/13 23:45:01;;;;;;;;;;;;;;;24.30;43.34;99714.53;20452494;28;98244;-74
2022/08/13 23:55:03;;;;;;;;;;;;;;;24.26;43.67;99714.03;20380263;28;101775;-75
